createdAt,value
2022-08-16T00:00:56.130Z,59.86
2022-08-16T00:03:22.079Z,59.35
2022-08-16T00:05:49.923Z,59.83
2022-08-16T00:08:35.757Z,59.73
2022-08-16T00:11:02.458Z,60.03
2022-08-16T00:13:28.595Z,59.36
2022-08-16T00:15:54.593Z,58.65
2022-08-16T00:18:22.308Z,59.04
2022-08-16T00:20:56.043Z,59.07
2022-08-16T00:23:25.259Z,58.30
2022-08-16T00:26:33.306Z,58.13
2022-08-16T00:28:46.516Z,57.88
2022-08-16T00:31:12.698Z,57.94
2022-08-16T00:33:40.831Z,58.30
2022-08-16T00:36:16.038Z,57.75
2022-08-16T00:38:43.747Z,58.13
2022-08-16T00:41:09.815Z,58.89
2022-08-16T00:43:42.755Z,59.06
2022-08-16T00:46:33.274Z,58.96
2022-08-16T00:48:55.467Z,59.33
2022-08-16T00:51:22.780Z,58.57
2022-08-16T00:53:49.497Z,58.56
2022-08-16T00:56:56.808Z,58.02
2022-08-16T00:59:02.930Z,58.20
2022-08-16T01:01:28.986Z,58.52
2022-08-16T01:03:56.616Z,57.93
2022-08-16T01:06:39.563Z,58.03
2022-08-16T01:09:08.574Z,57.81
2022-08-16T01:11:34.506Z,58.16
2022-08-16T01:14:20.377Z,57.11
2022-08-16T01:16:55.965Z,57.77
2022-08-16T01:19:22.016Z,57.11
2022-08-16T01:21:47.965Z,57.61
2022-08-16T01:24:51.805Z,57.04
2022-08-16T01:27:03.864Z,57.28
2022-08-16T01:29:56.898Z,58.16
2022-08-16T01:32:27.442Z,57.21
2022-08-16T01:34:59.846Z,57.10
2022-08-16T01:37:26.227Z,57.39
2022-08-16T01:39:52.392Z,57.98
2022-08-16T01:42:19.282Z,57.06
2022-08-16T01:44:47.431Z,56.75
2022-08-16T01:47:18.219Z,56.83
2022-08-16T01:50:42.142Z,57.21
2022-08-16T01:52:30.861Z,56.59
2022-08-16T01:54:56.803Z,56.15
2022-08-16T01:57:22.980Z,56.12
2022-08-16T01:59:50.763Z,55.83
2022-08-16T02:02:26.805Z,55.07
2022-08-16T02:04:54.700Z,55.13
2022-08-16T02:07:23.519Z,55.38
2022-08-16T02:09:57.457Z,55.86
2022-08-16T02:12:50.596Z,54.93
2022-08-16T02:15:11.362Z,55.77
2022-08-16T02:17:37.352Z,55.66
2022-08-16T02:20:03.295Z,55.46
2022-08-16T02:22:37.453Z,54.95
2022-08-16T02:25:03.406Z,54.48
2022-08-16T02:27:29.348Z,55.07
2022-08-16T02:30:05.153Z,54.80
2022-08-16T02:32:49.148Z,54.95
2022-08-16T02:35:16.558Z,54.50
2022-08-16T02:37:52.330Z,54.61
2022-08-16T02:40:18.844Z,54.57
2022-08-16T02:42:44.842Z,54.51
2022-08-16T02:45:10.943Z,55.56
2022-08-16T02:48:01.358Z,55.01
2022-08-16T02:50:55.159Z,55.56
2022-08-16T02:53:10.027Z,54.65
2022-08-16T02:55:40.760Z,54.45
2022-08-16T02:58:07.503Z,53.93
2022-08-16T03:00:35.149Z,53.93
2022-08-16T03:03:03.367Z,54.16
2022-08-16T03:05:31.037Z,53.61
2022-08-16T03:07:57.678Z,53.80
2022-08-16T03:10:23.698Z,54.11
2022-08-16T03:12:59.741Z,54.46
2022-08-16T03:15:25.799Z,54.33
2022-08-16T03:17:54.241Z,53.94
2022-08-16T03:20:20.375Z,54.56
2022-08-16T03:22:57.749Z,54.40
2022-08-16T03:25:23.763Z,53.82
2022-08-16T03:27:49.697Z,53.84
2022-08-16T03:30:17.422Z,55.18
2022-08-16T03:32:44.131Z,54.15
2022-08-16T03:35:13.417Z,54.20
2022-08-16T03:38:01.573Z,53.32
2022-08-16T03:40:32.989Z,55.09
2022-08-16T03:43:19.214Z,53.73
2022-08-16T03:45:45.556Z,53.79
2022-08-16T03:48:15.060Z,54.07
2022-08-16T03:50:44.296Z,54.01
2022-08-16T03:53:27.010Z,53.47
2022-08-16T03:56:04.079Z,53.24
2022-08-16T03:58:30.077Z,52.93
2022-08-16T04:00:59.148Z,52.58
2022-08-16T04:03:25.547Z,53.13
2022-08-16T04:05:54.031Z,52.76
2022-08-16T04:08:23.882Z,52.55
2022-08-16T04:10:51.735Z,52.36
2022-08-16T04:13:20.745Z,52.28
2022-08-16T04:16:03.779Z,52.14
2022-08-16T04:18:32.597Z,51.64
2022-08-16T04:20:58.639Z,52.05
2022-08-16T04:23:25.542Z,52.45
2022-08-16T04:25:51.534Z,51.89
2022-08-16T04:28:54.686Z,51.69
2022-08-16T04:31:07.324Z,51.84
2022-08-16T04:33:50.505Z,51.66
2022-08-16T04:36:20.103Z,50.62
2022-08-16T04:38:46.928Z,51.34
2022-08-16T04:41:15.963Z,50.86
2022-08-16T04:43:43.875Z,51.33
2022-08-16T04:47:00.302Z,50.54
2022-08-16T04:49:01.242Z,50.19
2022-08-16T04:51:27.226Z,50.35
2022-08-16T04:54:04.651Z,50.36
2022-08-16T04:56:33.677Z,50.49
2022-08-16T04:58:59.778Z,50.83
2022-08-16T05:01:58.262Z,51.33
2022-08-16T05:04:19.280Z,50.79
2022-08-16T05:06:47.044Z,50.67
2022-08-16T05:09:16.502Z,50.75
2022-08-16T05:11:42.518Z,50.61
2022-08-16T05:14:08.503Z,50.87
2022-08-16T05:16:35.070Z,51.32
2022-08-16T05:19:01.017Z,50.76
2022-08-16T05:21:38.555Z,50.56
2022-08-16T05:24:06.198Z,51.33
2022-08-16T05:26:33.155Z,50.98
2022-08-16T05:28:59.099Z,51.07
2022-08-16T05:31:29.997Z,51.55
2022-08-16T05:33:56.329Z,50.89
2022-08-16T05:36:22.261Z,51.18
2022-08-16T05:38:48.228Z,50.84
2022-08-16T05:41:14.312Z,50.94
2022-08-16T05:43:47.820Z,50.74
2022-08-16T05:46:28.861Z,50.27
2022-08-16T05:49:00.108Z,50.03
2022-08-16T05:51:38.244Z,50.13
2022-08-16T05:54:05.143Z,50.28
2022-08-16T05:56:31.300Z,50.29
2022-08-16T05:59:00.157Z,50.20
2022-08-16T06:01:27.430Z,50.08
2022-08-16T06:03:58.866Z,49.92
2022-08-16T06:06:28.907Z,49.15
2022-08-16T06:08:55.167Z,48.97
2022-08-16T06:11:21.728Z,48.50
2022-08-16T06:13:51.535Z,49.04
2022-08-16T06:16:21.350Z,48.64
2022-08-16T06:18:47.296Z,48.53
2022-08-16T06:21:13.626Z,48.86
2022-08-16T06:23:48.986Z,49.17
2022-08-16T06:26:20.084Z,48.64
2022-08-16T06:28:46.150Z,49.50
2022-08-16T06:31:12.484Z,48.80
2022-08-16T06:33:41.835Z,49.07
2022-08-16T06:36:08.393Z,49.33
2022-08-16T06:38:34.666Z,49.08
2022-08-16T06:41:00.622Z,49.19
2022-08-16T06:43:28.447Z,48.80
2022-08-16T06:45:54.435Z,48.37
2022-08-16T06:48:20.374Z,48.49
2022-08-16T06:50:59.229Z,48.93
2022-08-16T06:53:25.175Z,48.93
2022-08-16T06:55:53.777Z,47.99
2022-08-16T06:58:21.968Z,47.96
2022-08-16T07:00:48.922Z,47.50
2022-08-16T07:03:27.227Z,47.81
2022-08-16T07:05:54.166Z,47.58
2022-08-16T07:08:20.128Z,47.85
2022-08-16T07:10:46.410Z,46.82
2022-08-16T07:13:19.664Z,47.08
2022-08-16T07:15:58.447Z,46.58
2022-08-16T07:18:24.850Z,48.05
2022-08-16T07:20:52.344Z,47.08
2022-08-16T07:23:19.900Z,48.16
2022-08-16T07:25:46.132Z,47.96
2022-08-16T07:28:20.992Z,46.93
2022-08-16T07:30:50.313Z,46.83
2022-08-16T07:33:17.188Z,46.71
2022-08-16T07:35:49.829Z,46.99
2022-08-16T07:38:17.275Z,46.14
2022-08-16T07:41:01.959Z,46.47
2022-08-16T07:43:32.036Z,46.34
2022-08-16T07:45:57.981Z,46.71
2022-08-16T07:48:24.665Z,45.81
2022-08-16T07:50:56.901Z,45.81
2022-08-16T07:53:24.918Z,45.62
2022-08-16T07:55:55.217Z,45.73
2022-08-16T07:58:35.205Z,45.39
2022-08-16T08:01:02.536Z,46.47
2022-08-16T08:03:36.129Z,45.17
2022-08-16T08:06:05.423Z,44.71
2022-08-16T08:08:51.017Z,45.30
2022-08-16T08:11:18.489Z,45.47
2022-08-16T08:13:44.459Z,45.05
2022-08-16T08:16:18.444Z,45.09
2022-08-16T08:18:50.135Z,45.80
2022-08-16T08:21:26.175Z,45.73
2022-08-16T08:23:53.824Z,44.78
2022-08-16T08:26:20.688Z,45.13
2022-08-16T08:28:46.840Z,44.92
2022-08-16T08:31:17.143Z,44.77
2022-08-16T08:33:47.184Z,44.73
2022-08-16T08:36:21.719Z,44.67
2022-08-16T08:38:48.314Z,44.26
2022-08-16T08:41:18.564Z,43.90
2022-08-16T08:43:45.035Z,44.23
2022-08-16T08:46:17.927Z,44.31
2022-08-16T08:49:00.084Z,44.17
2022-08-16T08:51:35.922Z,42.78
2022-08-16T08:54:06.881Z,43.71
2022-08-16T08:56:35.068Z,43.01
2022-08-16T08:59:05.948Z,41.20
2022-08-16T09:01:42.628Z,41.84
2022-08-16T09:04:09.226Z,41.71
2022-08-16T09:06:43.703Z,40.23
2022-08-16T09:09:09.854Z,40.89
2022-08-16T09:11:43.355Z,41.16
2022-08-16T09:14:09.331Z,41.03
2022-08-16T09:17:01.481Z,40.42
2022-08-16T09:19:33.184Z,40.67
2022-08-16T09:22:00.296Z,40.92
2022-08-16T09:24:46.877Z,40.67
2022-08-16T09:27:12.399Z,40.33
2022-08-16T09:29:44.926Z,40.68
2022-08-16T09:32:11.800Z,39.81
2022-08-16T09:34:38.192Z,39.81
2022-08-16T09:37:17.973Z,39.90
2022-08-16T09:42:56.176Z,39.63
2022-08-16T09:45:25.015Z,39.16
2022-08-16T09:47:56.328Z,39.26
2022-08-16T09:50:23.889Z,40.20
2022-08-16T09:52:51.154Z,40.27
2022-08-16T09:55:17.230Z,38.94
2022-08-16T09:57:43.385Z,38.50
2022-08-16T10:00:42.638Z,37.57
2022-08-16T10:03:05.155Z,37.82
2022-08-16T10:05:35.079Z,36.74
2022-08-16T10:08:01.098Z,35.82
2022-08-16T10:10:47.058Z,35.66
2022-08-16T10:13:14.214Z,34.80
2022-08-16T10:15:41.607Z,35.40
2022-08-16T10:18:56.386Z,35.98
2022-08-16T10:20:53.678Z,34.81
2022-08-16T10:23:23.419Z,35.12
2022-08-16T10:27:18.204Z,35.20
2022-08-16T10:28:40.297Z,35.89
2022-08-16T10:31:07.762Z,34.00
2022-08-16T10:33:34.163Z,34.64
2022-08-16T10:36:03.686Z,34.21
2022-08-16T10:38:30.194Z,33.42
2022-08-16T10:40:59.250Z,34.03
2022-08-16T10:43:26.334Z,33.76
2022-08-16T10:45:57.256Z,32.16
2022-08-16T10:48:29.171Z,33.27
2022-08-16T10:50:55.359Z,31.97
2022-08-16T10:53:21.739Z,31.98
2022-08-16T10:55:47.984Z,32.83
2022-08-16T10:58:34.639Z,32.24
2022-08-16T11:01:24.870Z,31.67
2022-08-16T11:03:47.338Z,32.53
2022-08-16T11:06:14.125Z,32.45
2022-08-16T11:08:45.002Z,32.12
2022-08-16T11:11:18.944Z,31.00
2022-08-16T11:14:10.785Z,30.87
2022-08-16T11:19:17.699Z,30.06
2022-08-16T11:24:41.227Z,29.56
2022-08-16T11:27:35.590Z,31.20
2022-08-16T11:29:55.648Z,31.61
2022-08-16T11:32:22.642Z,31.61
2022-08-16T11:35:14.350Z,31.20
2022-08-16T11:40:32.736Z,30.96
2022-08-16T11:42:59.030Z,30.20
2022-08-16T11:45:24.982Z,29.44
2022-08-16T11:47:52.798Z,30.56
2022-08-16T11:50:18.793Z,31.29
2022-08-16T11:52:46.568Z,32.65
2022-08-16T11:55:12.996Z,32.35
2022-08-16T11:57:38.933Z,32.93
2022-08-16T12:00:05.046Z,32.31
2022-08-16T12:02:33.380Z,30.78
2022-08-16T12:04:59.369Z,32.26
2022-08-16T12:07:27.010Z,31.56
2022-08-16T12:09:54.249Z,32.17
2022-08-16T12:12:20.200Z,32.05
2022-08-16T12:14:46.159Z,32.95
2022-08-16T12:23:00.369Z,34.10
2022-08-16T12:28:25.349Z,32.94
2022-08-16T12:31:06.157Z,34.27
2022-08-16T12:33:32.535Z,34.62
2022-08-16T12:36:13.210Z,33.62
2022-08-16T12:38:47.815Z,33.65
2022-08-16T12:41:15.148Z,33.59
2022-08-16T12:43:50.680Z,34.33
2022-08-16T12:46:18.277Z,35.76
2022-08-16T12:48:44.218Z,36.30
2022-08-16T12:51:13.477Z,35.09
2022-08-16T12:53:46.471Z,34.74
2022-08-16T12:56:12.747Z,32.17
2022-08-16T12:58:48.485Z,32.25
2022-08-16T13:01:16.923Z,31.43
2022-08-16T13:03:43.354Z,31.93
2022-08-16T13:06:09.301Z,32.06
2022-08-16T13:08:36.491Z,31.25
2022-08-16T13:11:02.490Z,31.85
2022-08-16T13:13:29.552Z,32.28
2022-08-16T13:16:00.853Z,31.68
2022-08-16T13:18:34.207Z,32.79
2022-08-16T13:21:00.873Z,32.57
2022-08-16T13:23:26.825Z,32.36
2022-08-16T13:25:52.774Z,32.22
2022-08-16T13:28:21.957Z,31.83
2022-08-16T13:30:48.411Z,33.29
2022-08-16T13:33:18.254Z,33.19
2022-08-16T13:35:56.235Z,33.04
2022-08-16T13:38:24.421Z,32.33
2022-08-16T13:40:51.183Z,32.21
2022-08-16T13:43:17.401Z,33.37
2022-08-16T13:45:44.806Z,33.67
2022-08-16T13:48:11.104Z,34.77
2022-08-16T13:50:52.020Z,35.40
2022-08-16T13:53:18.293Z,35.09
2022-08-16T13:55:44.241Z,35.83
2022-08-16T14:01:09.865Z,35.89
2022-08-16T14:03:36.284Z,35.91
2022-08-16T14:06:03.811Z,36.29
2022-08-16T14:08:29.761Z,36.02
2022-08-16T14:10:55.704Z,36.22
2022-08-16T14:13:22.218Z,36.25
2022-08-16T14:15:48.190Z,36.26
2022-08-16T14:18:23.319Z,36.13
2022-08-16T14:20:57.248Z,37.03
2022-08-16T14:23:23.764Z,36.18
2022-08-16T14:25:53.788Z,36.35
2022-08-16T14:28:20.588Z,35.86
2022-08-16T14:30:49.615Z,35.95
2022-08-16T14:33:17.373Z,35.50
2022-08-16T14:35:50.178Z,35.47
2022-08-16T14:38:18.704Z,35.64
2022-08-16T14:40:47.168Z,35.36
2022-08-16T14:43:18.543Z,34.70
2022-08-16T14:45:44.500Z,34.64
2022-08-16T14:48:10.621Z,34.44
2022-08-16T14:50:36.576Z,35.38
2022-08-16T14:53:03.813Z,35.59
2022-08-16T14:55:30.110Z,35.12
2022-08-16T14:57:56.244Z,35.98
2022-08-16T15:00:22.205Z,34.84
2022-08-16T15:02:58.936Z,34.84
2022-08-16T15:05:24.915Z,35.02
2022-08-16T15:07:55.075Z,34.25
2022-08-16T15:10:24.252Z,33.86
2022-08-16T15:12:50.482Z,33.79
2022-08-16T15:15:17.020Z,33.19
2022-08-16T15:17:53.755Z,32.62
2022-08-16T15:20:22.390Z,33.54
2022-08-16T15:22:48.502Z,33.65
2022-08-16T15:25:14.466Z,34.26
2022-08-16T15:27:41.954Z,32.44
2022-08-16T15:30:44.782Z,34.18
2022-08-16T15:32:54.247Z,35.19
2022-08-16T15:35:24.842Z,34.80
2022-08-16T15:37:54.757Z,34.84
2022-08-16T15:40:26.844Z,34.30
2022-08-16T15:43:03.499Z,33.92
2022-08-16T15:45:32.610Z,34.36
2022-08-16T15:47:58.933Z,35.65
2022-08-16T15:50:29.898Z,35.17
2022-08-16T15:52:55.851Z,35.45
2022-08-16T15:55:29.593Z,35.47
2022-08-16T15:58:01.231Z,33.96
2022-08-16T16:00:47.178Z,34.06
2022-08-16T16:03:13.857Z,34.21
2022-08-16T16:05:39.806Z,33.80
2022-08-16T16:08:11.009Z,33.91
2022-08-16T16:10:37.460Z,33.94
2022-08-16T16:13:05.405Z,34.52
2022-08-16T16:15:34.840Z,33.79
2022-08-16T16:18:09.610Z,33.17
2022-08-16T16:20:38.935Z,33.34
2022-08-16T16:23:10.453Z,33.59
2022-08-16T16:25:36.737Z,32.91
2022-08-16T16:28:02.788Z,33.82
2022-08-16T16:30:45.065Z,31.80
2022-08-16T16:33:11.478Z,34.03
2022-08-16T16:35:41.813Z,35.12
2022-08-16T16:38:12.921Z,33.97
2022-08-16T16:40:46.370Z,32.73
2022-08-16T16:43:20.022Z,34.64
2022-08-16T16:45:52.079Z,34.22
2022-08-16T16:48:18.020Z,34.62
2022-08-16T16:50:45.525Z,34.65
2022-08-16T16:53:17.409Z,33.50
2022-08-16T16:55:44.111Z,33.79
2022-08-16T16:58:17.698Z,35.07
2022-08-16T17:00:56.427Z,34.60
2022-08-16T17:03:26.527Z,35.05
2022-08-16T17:06:00.354Z,35.26
2022-08-16T17:11:31.799Z,36.67
2022-08-16T17:14:03.489Z,36.59
2022-08-16T17:19:24.291Z,37.23
2022-08-16T17:21:57.510Z,37.33
2022-08-16T17:24:39.254Z,37.12
2022-08-16T17:27:06.104Z,37.65
2022-08-16T17:29:32.111Z,37.61
2022-08-16T17:32:02.531Z,37.05
2022-08-16T17:34:46.417Z,37.62
2022-08-16T17:37:16.434Z,37.59
2022-08-16T17:39:57.274Z,37.22
2022-08-16T17:42:27.152Z,37.84
2022-08-16T17:44:54.628Z,39.14
2022-08-16T17:47:20.932Z,38.86
2022-08-16T17:49:47.349Z,39.66
2022-08-16T17:52:13.296Z,40.42
2022-08-16T17:54:39.247Z,40.81
2022-08-16T17:57:05.375Z,41.02
2022-08-16T17:59:31.704Z,41.05
2022-08-16T18:02:42.302Z,40.85
2022-08-16T18:04:50.298Z,41.46
2022-08-16T18:07:16.350Z,41.55
2022-08-16T18:09:42.291Z,41.61
2022-08-16T18:12:08.430Z,42.20
2022-08-16T18:14:52.279Z,42.39
2022-08-16T18:17:19.369Z,42.42
2022-08-16T18:19:45.319Z,41.74
2022-08-16T18:22:11.267Z,41.40
2022-08-16T18:24:37.527Z,41.97
2022-08-16T18:27:24.720Z,41.63
2022-08-16T18:29:49.972Z,41.51
2022-08-16T18:32:18.071Z,42.43
2022-08-16T18:34:50.673Z,42.50
2022-08-16T18:37:16.642Z,42.44
2022-08-16T18:39:42.608Z,43.13
2022-08-16T18:42:08.808Z,43.58
2022-08-16T18:44:35.242Z,42.85
2022-08-16T18:47:01.247Z,43.44
2022-08-16T18:52:22.131Z,44.17
2022-08-16T18:55:01.794Z,43.74
2022-08-16T18:57:29.160Z,44.19
2022-08-16T19:02:58.818Z,44.99
2022-08-16T19:05:25.320Z,44.74
2022-08-16T19:10:45.220Z,45.32
2022-08-16T19:13:11.168Z,45.58
2022-08-16T20:54:23.856Z,49.32
2022-08-16T20:56:49.820Z,49.46
2022-08-16T20:59:16.526Z,50.27
2022-08-16T21:01:46.875Z,49.55
2022-08-16T21:04:16.839Z,49.73
2022-08-16T21:06:42.787Z,49.50
2022-08-16T21:09:20.950Z,49.15
2022-08-16T21:11:46.915Z,49.11
2022-08-16T21:14:12.866Z,49.44
2022-08-16T21:16:38.864Z,49.25
2022-08-16T21:19:04.806Z,49.60
2022-08-16T21:21:33.641Z,49.44
2022-08-16T21:24:00.623Z,48.99
2022-08-16T21:26:26.562Z,49.59
2022-08-16T21:28:54.825Z,50.36
2022-08-16T21:31:21.944Z,49.75
2022-08-16T21:33:55.628Z,49.54
2022-08-16T21:36:35.530Z,49.67
2022-08-16T21:39:01.990Z,49.84
2022-08-16T21:41:28.863Z,50.05
2022-08-16T21:43:54.798Z,50.10
2022-08-16T21:46:20.760Z,50.02
2022-08-16T21:48:48.015Z,50.13
2022-08-16T21:51:15.178Z,50.08
2022-08-16T21:53:41.123Z,50.61
2022-08-16T21:56:07.336Z,50.53
2022-08-16T21:58:35.818Z,50.50
2022-08-16T22:01:01.756Z,51.35
2022-08-16T22:03:28.335Z,51.73
2022-08-16T22:06:13.123Z,51.33
2022-08-16T22:08:49.357Z,51.31
2022-08-16T22:11:16.711Z,51.02
2022-08-16T22:13:43.038Z,51.38
2022-08-16T22:16:17.289Z,51.46
2022-08-16T22:18:43.814Z,51.94
2022-08-16T22:21:18.523Z,51.75
2022-08-16T22:23:45.039Z,51.98
2022-08-16T22:26:21.342Z,52.74
2022-08-16T22:28:57.333Z,52.38
2022-08-16T22:31:23.279Z,52.34
2022-08-16T22:33:49.299Z,52.92
2022-08-16T22:36:23.887Z,53.11
2022-08-16T22:38:57.522Z,52.97
2022-08-16T22:47:12.787Z,53.16
2022-08-16T22:53:04.839Z,52.95
2022-08-16T23:36:01.381Z,54.72
2022-08-16T23:41:21.387Z,54.75
2022-08-16T23:43:47.341Z,54.91
2022-08-16T23:46:13.495Z,54.37
2022-08-16T23:49:58.370Z,54.78
2022-08-16T23:51:25.399Z,55.66
2022-08-16T23:53:51.340Z,55.40
2022-08-16T23:56:17.285Z,55.37
2022-08-16T23:58:43.412Z,56.46
